Burke Lakefront Airport Cleveland US
ICAO: KBKL
IATA: BKL
Category: Medium
Scheduled Services: No

Elevation: 583 ft
TransAlt. 18000 ft.

Airport Communications:
CLEVELAND APP/DEP:125.35
ASOS:125.25
ATIS:125.25
CTAF:124.3
GND:121.9
LAKEFRONT TWR:124.3
UNICOM:122.95

KBKL Zoom In..

If you have problems with the map follow the link
https://www.worldairports.se/pages/airport.php?
ICAO=KBKL

Runways:

(A) RW 06L length 6195 ft width 150 ft
---- / hdg 65

(B) RW 06R length 5199 ft width 100 ft
---- / hdg 65

(C) RW 24L length 5199 ft width 100 ft
---- / hdg 245

(D) RW 24R length 6195 ft width 150 ft
ILS 109.75 / hdg 245

Location; KBKL
Day. 24 / Time. 10.53 Zulu
* Altimeter: 30.20
* Temperature: 02° c. 35.6°f.
* Wind from: 160° Speed 07 kn.
Dewpoint: -06° c.
Visibility: 10 Statute Miles.
Clouds: Clear (automated report).

KBKL 241053Z AUTO 16007KT 10SM CLR 02/M06 A3020 RMK AO2 SLP233 T00221061


Wind From 160°
Speed 07 kn.

 
 
jpsmedia.com for Web Design worldairports.se 2019   terms of use